METAR Data
IDs: Format: Raw Decoded Include TAF

Data at: 1049 UTC 18 Jan 2022

METAR for:K04V (Saguache Muni, CO, US)
Text:K04V 181035Z AUTO 30003KT 10SM CLR M05/M20 A3001 RMK AO2
Temperature: -5.0°C ( 23°F)
Dewpoint:-20.0°C ( -4°F) [RH = 30%]
Pressure (altimeter):30.01 inches Hg (1016.3 mb)
Winds:from the WNW (300 degrees) at 3 MPH (3 knots; 1.5 m/s)
Visibility:10 or more sm (16+ km)
Ceiling:at least 12,000 feet AGL
Clouds:sky clear below 12,000 feet AGL
QC Flag:automated observation with no human augmentation